createdAt,value
2019-01-11T00:00:50.924Z,1018.11
2019-01-11T00:01:50.916Z,1018.08
2019-01-11T00:02:50.903Z,1018.05
2019-01-11T00:03:50.887Z,1018.01
2019-01-11T00:04:50.878Z,1018.08
2019-01-11T00:05:50.860Z,1018.03
2019-01-11T00:06:50.853Z,1018.00
2019-01-11T00:07:50.843Z,1018.00
2019-01-11T00:08:50.827Z,1018.04
2019-01-11T00:09:50.865Z,1018.02
2019-01-11T00:10:50.971Z,1018.02
2019-01-11T00:11:50.795Z,1018.05
2019-01-11T00:12:50.788Z,1018.13
2019-01-11T00:13:50.800Z,1018.06
2019-01-11T00:14:50.811Z,1018.05
2019-01-11T00:15:50.763Z,1018.09
2019-01-11T00:16:50.744Z,1018.11
2019-01-11T00:17:52.268Z,1018.05
2019-01-11T00:18:50.947Z,1018.02
2019-01-11T00:19:50.731Z,1018.04
2019-01-11T00:20:50.704Z,1018.04
2019-01-11T00:21:50.841Z,1018.03
2019-01-11T00:22:50.684Z,1017.94
2019-01-11T00:23:50.670Z,1017.89
2019-01-11T00:24:50.693Z,1017.93
2019-01-11T00:25:50.656Z,1017.96
2019-01-11T00:26:50.656Z,1017.91
2019-01-11T00:27:50.635Z,1017.96
2019-01-11T00:28:50.620Z,1017.90
2019-01-11T00:29:50.615Z,1017.93
2019-01-11T00:30:50.617Z,1017.90
2019-01-11T00:31:50.591Z,1017.92
2019-01-11T00:32:50.580Z,1017.88
2019-01-11T00:33:50.568Z,1017.89
2019-01-11T00:34:50.556Z,1017.89
2019-01-11T00:35:50.566Z,1017.86
2019-01-11T00:36:50.545Z,1017.85
2019-01-11T00:37:50.535Z,1017.85
2019-01-11T00:38:50.521Z,1017.82
2019-01-11T00:39:50.506Z,1017.82
2019-01-11T00:40:50.505Z,1017.86
2019-01-11T00:41:50.489Z,1017.82
2019-01-11T00:42:50.522Z,1017.86
2019-01-11T00:43:50.468Z,1017.84
2019-01-11T00:44:50.459Z,1017.83
2019-01-11T00:45:50.453Z,1017.86
2019-01-11T00:46:50.431Z,1017.86
2019-01-11T00:47:50.436Z,1017.78
2019-01-11T00:48:51.788Z,1017.81
2019-01-11T00:49:50.411Z,1017.81
2019-01-11T00:50:50.407Z,1017.85
2019-01-11T00:51:50.376Z,1017.81
2019-01-11T00:52:50.367Z,1017.83
2019-01-11T00:53:50.357Z,1017.76
2019-01-11T00:54:50.348Z,1017.79
2019-01-11T00:55:50.398Z,1017.77
2019-01-11T00:56:50.330Z,1017.71
2019-01-11T00:57:50.315Z,1017.69
2019-01-11T00:58:50.306Z,1017.70
2019-01-11T00:59:50.295Z,1017.74
2019-01-11T01:00:50.295Z,1017.72
2019-01-11T01:01:50.289Z,1017.72
2019-01-11T01:02:50.266Z,1017.71
2019-01-11T01:03:50.265Z,1017.70
2019-01-11T01:04:50.244Z,1017.68
2019-01-11T01:05:50.245Z,1017.67
2019-01-11T01:06:50.223Z,1017.67
2019-01-11T01:07:50.217Z,1017.67
2019-01-11T01:08:50.202Z,1017.66
2019-01-11T01:09:50.192Z,1017.68
2019-01-11T01:10:50.190Z,1017.65
2019-01-11T01:11:50.174Z,1017.63
2019-01-11T01:12:50.162Z,1017.62
2019-01-11T01:13:50.153Z,1017.64
2019-01-11T01:14:50.148Z,1017.56
2019-01-11T01:15:50.170Z,1017.53
2019-01-11T01:16:50.120Z,1017.56
2019-01-11T01:17:50.108Z,1017.54
2019-01-11T01:18:50.104Z,1017.54
2019-01-11T01:19:50.091Z,1017.58
2019-01-11T01:20:50.088Z,1017.53
2019-01-11T01:21:50.067Z,1017.56
2019-01-11T01:22:50.066Z,1017.47
2019-01-11T01:23:50.057Z,1017.52
2019-01-11T01:24:50.048Z,1017.52
2019-01-11T01:25:50.049Z,1017.55
2019-01-11T01:26:50.349Z,1017.53
2019-01-11T01:27:50.003Z,1017.55
2019-01-11T01:28:49.992Z,1017.53
2019-01-11T01:29:49.996Z,1017.59
2019-01-11T01:30:49.990Z,1017.56
2019-01-11T01:31:49.962Z,1017.57
2019-01-11T01:32:49.950Z,1017.53
2019-01-11T01:33:49.989Z,1017.59
2019-01-11T01:34:49.933Z,1017.60
2019-01-11T01:35:49.931Z,1017.55
2019-01-11T01:36:49.909Z,1017.57
2019-01-11T01:37:49.901Z,1017.57
2019-01-11T01:38:49.888Z,1017.55
2019-01-11T01:39:49.877Z,1017.56
2019-01-11T01:40:49.903Z,1017.56
2019-01-11T01:41:49.896Z,1017.50
2019-01-11T01:42:49.857Z,1017.52
2019-01-11T01:43:49.837Z,1017.50
2019-01-11T01:44:49.831Z,1017.47
2019-01-11T01:45:49.816Z,1017.47
2019-01-11T01:46:49.901Z,1017.47
2019-01-11T01:47:49.800Z,1017.49
2019-01-11T01:48:49.783Z,1017.46
2019-01-11T01:49:49.777Z,1017.43
2019-01-11T01:50:49.763Z,1017.46
2019-01-11T01:51:49.765Z,1017.42
2019-01-11T01:52:49.745Z,1017.48
2019-01-11T01:53:49.741Z,1017.43
2019-01-11T01:54:51.033Z,1017.48
2019-01-11T01:55:49.722Z,1017.49
2019-01-11T01:56:49.712Z,1017.48
2019-01-11T01:57:49.700Z,1017.44
2019-01-11T01:58:49.683Z,1017.41
2019-01-11T01:59:49.683Z,1017.42
2019-01-11T02:00:49.663Z,1017.42
2019-01-11T02:01:49.672Z,1017.31
2019-01-11T02:02:49.713Z,1017.33
2019-01-11T02:03:49.627Z,1017.40
2019-01-11T02:04:49.623Z,1017.37
2019-01-11T02:05:49.628Z,1017.32
2019-01-11T02:06:49.613Z,1017.29
2019-01-11T02:07:49.593Z,1017.28
2019-01-11T02:08:49.582Z,1017.30
2019-01-11T02:09:49.566Z,1017.32
2019-01-11T02:10:49.554Z,1017.31
2019-01-11T02:11:49.599Z,1017.28
2019-01-11T02:12:49.553Z,1017.28
2019-01-11T02:13:49.532Z,1017.28
2019-01-11T02:14:49.511Z,1017.20
2019-01-11T02:15:49.503Z,1017.21
2019-01-11T02:16:49.512Z,1017.23
2019-01-11T02:17:49.487Z,1017.20
2019-01-11T02:18:49.472Z,1017.23
2019-01-11T02:19:49.466Z,1017.24
2019-01-11T02:20:49.450Z,1017.21
2019-01-11T02:21:49.461Z,1017.24
2019-01-11T02:22:49.431Z,1017.20
2019-01-11T02:23:49.418Z,1017.19
2019-01-11T02:24:49.415Z,1017.18
2019-01-11T02:25:49.398Z,1017.15
2019-01-11T02:26:49.404Z,1017.14
2019-01-11T02:27:49.377Z,1017.09
2019-01-11T02:28:49.393Z,1017.14
2019-01-11T02:29:49.357Z,1017.13
2019-01-11T02:30:49.350Z,1017.10
2019-01-11T02:31:49.347Z,1017.06
2019-01-11T02:32:53.004Z,1017.03
2019-01-11T02:33:49.318Z,1017.05
2019-01-11T02:34:49.317Z,1017.03
2019-01-11T02:35:49.391Z,1017.05
2019-01-11T02:36:49.301Z,1017.03
2019-01-11T02:37:49.273Z,1016.99
2019-01-11T02:38:49.264Z,1017.00
2019-01-11T02:39:49.252Z,1016.96
2019-01-11T02:40:49.254Z,1016.93
2019-01-11T02:41:49.242Z,1016.96
2019-01-11T02:42:49.227Z,1016.98
2019-01-11T02:43:49.212Z,1016.94
2019-01-11T02:44:49.201Z,1016.91
2019-01-11T02:45:49.197Z,1016.93
2019-01-11T02:46:49.198Z,1016.85
2019-01-11T02:47:49.179Z,1016.87
2019-01-11T02:48:49.165Z,1016.85
2019-01-11T02:49:49.153Z,1016.84
2019-01-11T02:50:49.136Z,1016.83
2019-01-11T02:51:49.302Z,1016.82
2019-01-11T02:52:49.122Z,1016.76
2019-01-11T02:53:49.129Z,1016.76
2019-01-11T02:54:49.100Z,1016.76
2019-01-11T02:55:49.084Z,1016.72
2019-01-11T02:56:49.084Z,1016.74
2019-01-11T02:57:49.067Z,1016.71
2019-01-11T02:58:49.054Z,1016.72
2019-01-11T02:59:49.045Z,1016.72
2019-01-11T03:00:49.086Z,1016.66
2019-01-11T03:01:49.035Z,1016.63
2019-01-11T03:02:49.014Z,1016.61
2019-01-11T03:03:49.008Z,1016.65
2019-01-11T03:04:48.996Z,1016.58
2019-01-11T03:05:48.982Z,1016.57
2019-01-11T03:06:48.990Z,1016.56
2019-01-11T03:07:48.971Z,1016.51
2019-01-11T03:08:48.949Z,1016.52
2019-01-11T03:09:48.940Z,1016.45
2019-01-11T03:10:48.937Z,1016.43
2019-01-11T03:11:48.919Z,1016.40
2019-01-11T03:12:48.921Z,1016.36
2019-01-11T03:13:48.896Z,1016.32
2019-01-11T03:14:48.894Z,1016.34
2019-01-11T03:15:48.877Z,1016.35
2019-01-11T03:16:48.866Z,1016.32
2019-01-11T03:17:48.871Z,1016.32
2019-01-11T03:18:48.846Z,1016.29
2019-01-11T03:19:48.844Z,1016.29
2019-01-11T03:20:48.822Z,1016.22
2019-01-11T03:21:48.812Z,1016.22
2019-01-11T03:22:48.814Z,1016.21
2019-01-11T03:23:49.005Z,1016.22
2019-01-11T03:24:48.781Z,1016.18
2019-01-11T03:25:48.917Z,1016.15
2019-01-11T03:26:48.759Z,1016.10
2019-01-11T03:27:48.762Z,1016.10
2019-01-11T03:28:48.742Z,1016.07
2019-01-11T03:29:48.732Z,1016.09
2019-01-11T03:30:48.721Z,1016.09
2019-01-11T03:31:48.710Z,1016.07
2019-01-11T03:32:48.773Z,1016.07
2019-01-11T03:33:48.691Z,1016.06
2019-01-11T03:34:48.676Z,1016.05
2019-01-11T03:35:48.669Z,1015.98
2019-01-11T03:36:48.658Z,1015.93
2019-01-11T03:37:48.657Z,1015.99
2019-01-11T03:38:48.642Z,1015.95
2019-01-11T03:39:48.626Z,1015.98
2019-01-11T03:40:48.623Z,1015.96
2019-01-11T03:41:48.609Z,1015.93
2019-01-11T03:42:48.681Z,1015.88
2019-01-11T03:43:48.584Z,1015.86
2019-01-11T03:44:48.580Z,1015.88
2019-01-11T03:45:48.562Z,1015.88
2019-01-11T03:46:48.570Z,1015.89
2019-01-11T03:47:48.550Z,1015.89
2019-01-11T03:48:48.533Z,1015.85
2019-01-11T03:49:54.674Z,1015.78
2019-01-11T03:50:49.512Z,1015.82
2019-01-11T03:51:48.503Z,1015.78
2019-01-11T03:52:48.503Z,1015.78
2019-01-11T03:53:48.483Z,1015.77
2019-01-11T03:54:48.470Z,1015.76
2019-01-11T03:55:48.461Z,1015.78
2019-01-11T03:56:48.451Z,1015.76
2019-01-11T03:57:48.451Z,1015.75
2019-01-11T03:58:48.433Z,1015.77
2019-01-11T03:59:48.426Z,1015.77
2019-01-11T04:00:48.404Z,1015.78
2019-01-11T04:01:48.414Z,1015.78
2019-01-11T04:02:48.394Z,1015.81
2019-01-11T04:03:48.387Z,1015.78
2019-01-11T04:04:48.377Z,1015.74
2019-01-11T04:05:48.404Z,1015.70
2019-01-11T04:06:48.340Z,1015.70
2019-01-11T04:07:48.345Z,1015.68
2019-01-11T04:08:48.322Z,1015.68
2019-01-11T04:09:48.324Z,1015.68
2019-01-11T04:10:48.301Z,1015.62
2019-01-11T04:11:48.292Z,1015.63
2019-01-11T04:12:48.356Z,1015.66
2019-01-11T04:13:48.271Z,1015.59
2019-01-11T04:14:48.266Z,1015.57
2019-01-11T04:15:48.255Z,1015.56
2019-01-11T04:16:48.246Z,1015.57
2019-01-11T04:17:48.268Z,1015.54
2019-01-11T04:18:48.216Z,1015.55
2019-01-11T04:19:48.206Z,1015.48
2019-01-11T04:20:48.196Z,1015.52
2019-01-11T04:21:48.188Z,1015.51
2019-01-11T04:22:48.175Z,1015.51
2019-01-11T04:23:48.178Z,1015.47
2019-01-11T04:24:48.155Z,1015.49
2019-01-11T04:25:48.149Z,1015.48
2019-01-11T04:26:48.557Z,1015.49
2019-01-11T04:27:48.122Z,1015.43
2019-01-11T04:28:48.217Z,1015.43
2019-01-11T04:29:48.105Z,1015.39
2019-01-11T04:30:48.093Z,1015.39
2019-01-11T04:31:48.090Z,1015.34
2019-01-11T04:32:48.076Z,1015.30
2019-01-11T04:33:48.093Z,1015.28
2019-01-11T04:34:48.061Z,1015.29
2019-01-11T04:35:48.045Z,1015.25
2019-01-11T04:36:48.029Z,1015.26
2019-01-11T04:37:48.020Z,1015.19
2019-01-11T04:38:48.027Z,1015.26
2019-01-11T04:39:48.001Z,1015.29
2019-01-11T04:40:47.989Z,1015.22
2019-01-11T04:41:47.976Z,1015.25
2019-01-11T04:42:48.002Z,1015.16
2019-01-11T04:43:47.972Z,1015.17
2019-01-11T04:44:47.946Z,1015.13
2019-01-11T04:45:47.937Z,1015.10
2019-01-11T04:46:47.940Z,1015.14
2019-01-11T04:47:47.938Z,1015.10
2019-01-11T04:48:47.925Z,1015.11
2019-01-11T04:49:47.909Z,1015.04
2019-01-11T04:50:47.880Z,1015.04
2019-01-11T04:51:47.872Z,1015.05
2019-01-11T04:52:47.865Z,1015.03
2019-01-11T04:53:47.890Z,1015.03
2019-01-11T04:54:47.842Z,1014.96
2019-01-11T04:55:47.840Z,1014.97
2019-01-11T04:56:47.822Z,1014.96
2019-01-11T04:57:47.815Z,1014.92
2019-01-11T04:58:47.815Z,1014.92
2019-01-11T04:59:47.808Z,1014.88
2019-01-11T05:00:47.782Z,1014.94
2019-01-11T05:01:47.769Z,1014.94
2019-01-11T05:02:47.767Z,1014.89
2019-01-11T05:03:47.771Z,1014.89
2019-01-11T05:04:47.755Z,1014.86
2019-01-11T05:05:47.732Z,1014.84
2019-01-11T05:06:47.714Z,1014.84
2019-01-11T05:07:47.720Z,1014.85
2019-01-11T05:08:47.730Z,1014.81
2019-01-11T05:09:47.691Z,1014.80
2019-01-11T05:10:47.689Z,1014.80
2019-01-11T05:11:47.694Z,1014.77
2019-01-11T05:12:47.652Z,1014.79
2019-01-11T05:13:47.639Z,1014.74
2019-01-11T05:14:47.653Z,1014.74
2019-01-11T05:15:47.640Z,1014.73
2019-01-11T05:16:47.630Z,1014.71
2019-01-11T05:17:47.602Z,1014.70
2019-01-11T05:18:47.618Z,1014.64
2019-01-11T05:19:47.597Z,1014.68
2019-01-11T05:20:47.580Z,1014.67
2019-01-11T05:21:47.557Z,1014.67
2019-01-11T05:22:47.549Z,1014.63
2019-01-11T05:23:47.535Z,1014.62
2019-01-11T05:24:47.534Z,1014.61
2019-01-11T05:25:47.515Z,1014.59
2019-01-11T05:26:47.506Z,1014.54
2019-01-11T05:27:47.496Z,1014.54
2019-01-11T05:28:47.512Z,1014.54
2019-01-11T05:29:47.494Z,1014.50
2019-01-11T05:30:47.461Z,1014.48
2019-01-11T05:31:47.453Z,1014.48
2019-01-11T05:32:47.469Z,1014.54
2019-01-11T05:33:47.432Z,1014.53
2019-01-11T05:34:47.448Z,1014.55
2019-01-11T05:35:47.412Z,1014.51
2019-01-11T05:36:47.423Z,1014.53
2019-01-11T05:37:47.390Z,1014.48
2019-01-11T05:38:47.378Z,1014.49
2019-01-11T05:39:47.389Z,1014.46
2019-01-11T05:40:47.358Z,1014.45
2019-01-11T05:41:47.354Z,1014.45
2019-01-11T05:42:47.335Z,1014.43
2019-01-11T05:43:47.326Z,1014.39
2019-01-11T05:44:47.339Z,1014.36
2019-01-11T05:45:47.312Z,1014.35
2019-01-11T05:46:48.039Z,1014.38
2019-01-11T05:47:47.287Z,1014.34
2019-01-11T05:48:47.275Z,1014.30
2019-01-11T05:49:47.308Z,1014.31
2019-01-11T05:50:47.266Z,1014.24
2019-01-11T05:51:47.254Z,1014.30
2019-01-11T05:52:47.231Z,1014.30
2019-01-11T05:53:47.218Z,1014.22
2019-01-11T05:54:47.276Z,1014.23
2019-01-11T05:55:47.200Z,1014.21
2019-01-11T05:56:47.195Z,1014.16
2019-01-11T05:57:47.197Z,1014.15
2019-01-11T05:58:47.169Z,1014.17
2019-01-11T05:59:47.173Z,1014.11
2019-01-11T06:00:47.151Z,1014.13
2019-01-11T06:01:47.140Z,1014.14
2019-01-11T06:02:47.134Z,1014.12
2019-01-11T06:03:47.129Z,1014.09
2019-01-11T06:04:47.138Z,1014.06
2019-01-11T06:05:47.095Z,1014.03
2019-01-11T06:06:47.083Z,1014.07
2019-01-11T06:07:47.086Z,1014.05
2019-01-11T06:08:47.067Z,1014.00
2019-01-11T06:09:47.074Z,1014.05
2019-01-11T06:10:47.047Z,1014.03
2019-01-11T06:11:47.116Z,1014.05
2019-01-11T06:12:47.019Z,1014.00
2019-01-11T06:13:47.025Z,1013.94
2019-01-11T06:14:47.015Z,1013.96
2019-01-11T06:15:46.994Z,1013.96
2019-01-11T06:16:46.986Z,1013.85
2019-01-11T06:17:46.972Z,1013.92
2019-01-11T06:18:46.963Z,1013.90
2019-01-11T06:19:46.966Z,1013.90
2019-01-11T06:20:46.955Z,1013.90
2019-01-11T06:21:46.930Z,1013.85
2019-01-11T06:22:46.916Z,1013.86
2019-01-11T06:23:46.910Z,1013.82
2019-01-11T06:24:46.907Z,1013.84
2019-01-11T06:25:46.896Z,1013.87
2019-01-11T06:26:46.884Z,1013.80
2019-01-11T06:27:46.866Z,1013.83
2019-01-11T06:28:46.867Z,1013.80
2019-01-11T06:29:46.865Z,1013.80
2019-01-11T06:30:46.833Z,1013.83
2019-01-11T06:31:46.835Z,1013.79
2019-01-11T06:32:46.833Z,1013.77
2019-01-11T06:33:46.803Z,1013.80
2019-01-11T06:34:46.832Z,1013.75
2019-01-11T06:35:46.833Z,1013.71
2019-01-11T06:36:46.773Z,1013.71
2019-01-11T06:37:46.762Z,1013.73
2019-01-11T06:38:46.758Z,1013.75
2019-01-11T06:39:46.766Z,1013.74
2019-01-11T06:40:46.742Z,1013.71
2019-01-11T06:41:46.725Z,1013.67
2019-01-11T06:42:46.707Z,1013.66
2019-01-11T06:43:46.707Z,1013.66
2019-01-11T06:44:46.699Z,1013.63
2019-01-11T06:45:46.690Z,1013.62
2019-01-11T06:46:46.728Z,1013.61
2019-01-11T06:47:46.661Z,1013.57
2019-01-11T06:48:46.645Z,1013.60
2019-01-11T06:49:46.635Z,1013.58
2019-01-11T06:50:46.647Z,1013.53
2019-01-11T06:51:46.612Z,1013.53
2019-01-11T06:52:46.602Z,1013.50
2019-01-11T06:53:46.592Z,1013.50
2019-01-11T06:54:46.588Z,1013.47
2019-01-11T06:55:46.583Z,1013.51
2019-01-11T06:56:46.580Z,1013.48
2019-01-11T06:57:46.549Z,1013.43
2019-01-11T06:58:46.540Z,1013.45
2019-01-11T06:59:46.530Z,1013.46
2019-01-11T07:00:46.544Z,1013.47
2019-01-11T07:01:46.522Z,1013.50
2019-01-11T07:02:46.509Z,1013.45
2019-01-11T07:03:46.522Z,1013.49
2019-01-11T07:04:46.498Z,1013.46
2019-01-11T07:05:46.489Z,1013.48
2019-01-11T07:06:46.470Z,1013.51
2019-01-11T07:07:46.454Z,1013.44
2019-01-11T07:08:46.435Z,1013.48
2019-01-11T07:09:46.425Z,1013.46
2019-01-11T07:10:46.430Z,1013.49
2019-01-11T07:11:46.423Z,1013.47
2019-01-11T07:12:46.397Z,1013.47
2019-01-11T07:13:46.409Z,1013.46
2019-01-11T07:14:46.400Z,1013.42
2019-01-11T07:15:46.381Z,1013.40
2019-01-11T07:16:46.360Z,1013.45
2019-01-11T07:17:46.356Z,1013.38
2019-01-11T07:18:46.339Z,1013.42
2019-01-11T07:19:46.341Z,1013.42
2019-01-11T07:20:46.347Z,1013.42
2019-01-11T07:21:46.304Z,1013.44
2019-01-11T07:22:46.297Z,1013.43
2019-01-11T07:23:46.288Z,1013.42
2019-01-11T07:24:46.281Z,1013.47
2019-01-11T07:25:47.705Z,1013.47
2019-01-11T07:26:46.260Z,1013.46
2019-01-11T07:27:46.264Z,1013.42
2019-01-11T07:28:46.245Z,1013.41
2019-01-11T07:29:46.225Z,1013.40
2019-01-11T07:30:46.244Z,1013.40
2019-01-11T07:31:46.215Z,1013.42
2019-01-11T07:32:46.232Z,1013.41
2019-01-11T07:33:46.183Z,1013.44
2019-01-11T07:34:46.166Z,1013.38
2019-01-11T07:35:46.162Z,1013.42
2019-01-11T07:36:46.168Z,1013.41
2019-01-11T07:37:46.158Z,1013.44
2019-01-11T07:38:46.128Z,1013.42
2019-01-11T07:39:46.115Z,1013.42
2019-01-11T07:40:46.115Z,1013.42
2019-01-11T07:41:46.111Z,1013.39
2019-01-11T07:42:46.109Z,1013.35
2019-01-11T07:43:46.092Z,1013.31
2019-01-11T07:44:46.072Z,1013.36
2019-01-11T07:45:46.062Z,1013.26
2019-01-11T07:46:46.065Z,1013.32
2019-01-11T07:47:46.032Z,1013.28
2019-01-11T07:48:46.026Z,1013.32
2019-01-11T07:49:46.026Z,1013.28
2019-01-11T07:50:49.304Z,1013.30
2019-01-11T07:51:46.003Z,1013.32
2019-01-11T07:52:46.005Z,1013.29
2019-01-11T07:53:45.968Z,1013.39
2019-01-11T07:54:45.975Z,1013.35
2019-01-11T07:55:45.960Z,1013.39
2019-01-11T07:56:45.954Z,1013.37
2019-01-11T07:57:45.929Z,1013.41
2019-01-11T07:58:45.929Z,1013.42
2019-01-11T07:59:45.909Z,1013.41
2019-01-11T08:00:45.901Z,1013.33
2019-01-11T08:01:45.908Z,1013.38
2019-01-11T08:02:45.879Z,1013.33
2019-01-11T08:03:45.867Z,1013.34
2019-01-11T08:04:45.855Z,1013.39
2019-01-11T08:05:45.844Z,1013.33
2019-01-11T08:06:45.870Z,1013.36
2019-01-11T08:07:45.847Z,1013.34
2019-01-11T08:08:45.815Z,1013.33
2019-01-11T08:09:45.803Z,1013.28
2019-01-11T08:10:45.823Z,1013.29
2019-01-11T08:11:45.789Z,1013.23
2019-01-11T08:12:45.794Z,1013.24
2019-01-11T08:13:45.775Z,1013.22
2019-01-11T08:14:45.755Z,1013.19
2019-01-11T08:15:45.749Z,1013.17
2019-01-11T08:16:45.733Z,1013.14
2019-01-11T08:17:45.757Z,1013.08
2019-01-11T08:18:45.714Z,1013.10
2019-01-11T08:19:45.701Z,1013.11
2019-01-11T08:20:45.689Z,1013.07
2019-01-11T08:21:45.678Z,1013.02
2019-01-11T08:22:45.683Z,1013.02
2019-01-11T08:23:45.662Z,1013.02
2019-01-11T08:24:45.659Z,1012.96
2019-01-11T08:25:45.662Z,1012.96
2019-01-11T08:26:45.632Z,1012.94
2019-01-11T08:27:45.631Z,1012.86
2019-01-11T08:28:45.613Z,1012.92
2019-01-11T08:29:45.600Z,1012.93
2019-01-11T08:30:45.593Z,1012.90
2019-01-11T08:31:45.571Z,1012.92
2019-01-11T08:32:45.586Z,1012.89
2019-01-11T08:33:45.553Z,1012.87
2019-01-11T08:34:45.540Z,1012.89
2019-01-11T08:35:45.548Z,1012.84
2019-01-11T08:36:45.529Z,1012.87
2019-01-11T08:37:45.540Z,1012.85
2019-01-11T08:38:45.505Z,1012.80
2019-01-11T08:39:45.488Z,1012.82
2019-01-11T08:40:45.475Z,1012.77
2019-01-11T08:41:45.471Z,1012.84
2019-01-11T08:42:45.472Z,1012.85
2019-01-11T08:43:45.449Z,1012.84
2019-01-11T08:44:45.435Z,1012.91
2019-01-11T08:45:45.422Z,1012.81
2019-01-11T08:46:45.415Z,1012.82
2019-01-11T08:47:45.410Z,1012.84
2019-01-11T08:48:45.397Z,1012.80
2019-01-11T08:49:45.396Z,1012.79
2019-01-11T08:50:45.363Z,1012.76
2019-01-11T08:51:45.354Z,1012.73
2019-01-11T08:52:45.361Z,1012.73
2019-01-11T08:53:45.336Z,1012.74
2019-01-11T08:54:45.332Z,1012.66
2019-01-11T08:55:45.320Z,1012.65
2019-01-11T08:56:45.307Z,1012.67
2019-01-11T08:57:45.303Z,1012.66
2019-01-11T08:58:45.279Z,1012.66
2019-01-11T08:59:45.268Z,1012.63
2019-01-11T09:00:45.261Z,1012.61
2019-01-11T09:01:45.255Z,1012.62
2019-01-11T09:02:45.252Z,1012.58
2019-01-11T09:03:45.230Z,1012.52
2019-01-11T09:04:45.223Z,1012.52
2019-01-11T09:05:45.213Z,1012.52
2019-01-11T09:06:45.208Z,1012.52
2019-01-11T09:07:45.205Z,1012.50
2019-01-11T09:08:45.175Z,1012.44
2019-01-11T09:09:45.168Z,1012.42
2019-01-11T09:10:45.151Z,1012.42
2019-01-11T09:11:45.146Z,1012.44
2019-01-11T09:12:45.140Z,1012.47
2019-01-11T09:13:45.121Z,1012.42
2019-01-11T09:14:45.181Z,1012.44
2019-01-11T09:15:45.119Z,1012.41
2019-01-11T09:16:45.091Z,1012.50
2019-01-11T09:17:45.099Z,1012.49
2019-01-11T09:18:45.083Z,1012.48
2019-01-11T09:19:45.063Z,1012.52
2019-01-11T09:20:45.048Z,1012.55
2019-01-11T09:21:45.047Z,1012.53
2019-01-11T09:22:45.074Z,1012.54
2019-01-11T09:23:45.013Z,1012.55
2019-01-11T09:24:45.008Z,1012.51
2019-01-11T09:25:44.994Z,1012.57
2019-01-11T09:26:44.993Z,1012.56
2019-01-11T09:27:44.972Z,1012.47
2019-01-11T09:28:44.984Z,1012.47
2019-01-11T09:29:44.958Z,1012.48
2019-01-11T09:30:44.941Z,1012.47
2019-01-11T09:31:44.931Z,1012.41
2019-01-11T09:32:44.921Z,1012.38
2019-01-11T09:33:44.925Z,1012.37
2019-01-11T09:34:44.905Z,1012.31
2019-01-11T09:35:44.888Z,1012.33
2019-01-11T09:36:44.879Z,1012.30
2019-01-11T09:37:44.866Z,1012.26
2019-01-11T09:38:44.895Z,1012.20
2019-01-11T09:39:44.868Z,1012.12
2019-01-11T09:40:44.855Z,1012.19
2019-01-11T09:41:44.825Z,1012.16
2019-01-11T09:42:44.820Z,1012.24
2019-01-11T09:43:44.828Z,1012.17
2019-01-11T09:44:44.799Z,1012.25
2019-01-11T09:45:44.788Z,1012.18
2019-01-11T09:46:44.771Z,1012.17
2019-01-11T09:47:44.764Z,1012.14
2019-01-11T09:48:44.769Z,1012.09
2019-01-11T09:49:44.743Z,1012.06
2019-01-11T09:50:44.731Z,1012.08
2019-01-11T09:51:44.738Z,1012.06
2019-01-11T09:52:44.725Z,1012.07
2019-01-11T09:53:44.706Z,1012.06
2019-01-11T09:54:46.039Z,1012.08
2019-01-11T09:55:44.681Z,1012.11
2019-01-11T09:56:44.673Z,1012.09
2019-01-11T09:57:44.661Z,1012.05
2019-01-11T09:58:44.682Z,1012.09
2019-01-11T09:59:44.643Z,1012.08
2019-01-11T10:00:44.634Z,1012.04
2019-01-11T10:01:44.624Z,1012.06
2019-01-11T10:02:44.608Z,1012.02
2019-01-11T10:03:44.610Z,1011.99
2019-01-11T10:04:44.581Z,1011.99
2019-01-11T10:05:44.578Z,1011.96
2019-01-11T10:06:44.559Z,1011.96
2019-01-11T10:07:44.577Z,1011.97
2019-01-11T10:08:44.545Z,1011.96
2019-01-11T10:09:44.536Z,1011.94
2019-01-11T10:10:44.522Z,1011.92
2019-01-11T10:11:44.503Z,1011.87
2019-01-11T10:12:44.500Z,1011.85
2019-01-11T10:13:44.514Z,1011.83
2019-01-11T10:14:44.473Z,1011.83
2019-01-11T10:15:44.474Z,1011.84
2019-01-11T10:16:45.070Z,1011.76
2019-01-11T10:17:44.439Z,1011.79
2019-01-11T10:18:44.431Z,1011.80
2019-01-11T10:19:44.457Z,1011.76
2019-01-11T10:20:44.419Z,1011.68
2019-01-11T10:21:44.416Z,1011.69
2019-01-11T10:22:44.400Z,1011.65
2019-01-11T10:23:44.385Z,1011.66
2019-01-11T10:24:44.380Z,1011.61
2019-01-11T10:25:44.354Z,1011.62
2019-01-11T10:26:44.348Z,1011.59
2019-01-11T10:27:44.339Z,1011.58
2019-01-11T10:28:44.342Z,1011.57
2019-01-11T10:29:44.330Z,1011.58
2019-01-11T10:30:44.308Z,1011.55
2019-01-11T10:31:44.299Z,1011.57
2019-01-11T10:32:44.289Z,1011.47
2019-01-11T10:33:44.273Z,1011.46
2019-01-11T10:34:44.279Z,1011.41
2019-01-11T10:35:44.248Z,1011.43
2019-01-11T10:36:44.254Z,1011.36
2019-01-11T10:37:44.229Z,1011.35
2019-01-11T10:38:44.221Z,1011.31
2019-01-11T10:39:44.298Z,1011.25
2019-01-11T10:40:44.200Z,1011.31
2019-01-11T10:41:44.183Z,1011.34
2019-01-11T10:42:44.173Z,1011.32
2019-01-11T10:43:44.164Z,1011.32
2019-01-11T10:44:44.168Z,1011.30
2019-01-11T10:45:44.148Z,1011.26
2019-01-11T10:46:49.002Z,1011.21
2019-01-11T10:47:45.123Z,1011.20
2019-01-11T10:48:44.127Z,1011.19
2019-01-11T10:49:44.120Z,1011.21
2019-01-11T10:50:44.088Z,1011.16
2019-01-11T10:51:44.081Z,1011.17
2019-01-11T10:52:44.072Z,1011.16
2019-01-11T10:53:44.058Z,1011.09
2019-01-11T10:54:44.057Z,1011.10
2019-01-11T10:55:44.036Z,1011.11
2019-01-11T10:56:44.026Z,1011.11
2019-01-11T10:57:44.016Z,1011.12
2019-01-11T10:58:44.029Z,1011.10
2019-01-11T10:59:44.093Z,1011.14
2019-01-11T11:00:43.986Z,1011.05
2019-01-11T11:01:43.972Z,1011.12
2019-01-11T11:02:43.963Z,1011.06
2019-01-11T11:03:43.953Z,1011.09
2019-01-11T11:04:44.040Z,1011.09
2019-01-11T11:05:43.940Z,1011.15
2019-01-11T11:06:43.924Z,1011.03
2019-01-11T11:07:45.127Z,1011.06
2019-01-11T11:08:43.903Z,1011.07
2019-01-11T11:09:43.893Z,1011.02
2019-01-11T11:10:43.923Z,1010.96
2019-01-11T11:11:43.866Z,1010.95
2019-01-11T11:12:43.862Z,1010.97
2019-01-11T11:13:43.895Z,1010.97
2019-01-11T11:14:43.836Z,1010.94
2019-01-11T11:15:43.844Z,1010.83
2019-01-11T11:16:43.820Z,1010.83
2019-01-11T11:17:43.809Z,1010.91
2019-01-11T11:18:43.797Z,1010.81
2019-01-11T11:19:43.795Z,1010.79
2019-01-11T11:20:43.796Z,1010.73
2019-01-11T11:21:43.818Z,1010.74
2019-01-11T11:22:44.029Z,1010.76
2019-01-11T11:23:43.746Z,1010.74
2019-01-11T11:24:43.737Z,1010.70
2019-01-11T11:25:43.748Z,1010.71
2019-01-11T11:26:43.711Z,1010.71
2019-01-11T11:27:43.746Z,1010.66
2019-01-11T11:28:43.694Z,1010.59
2019-01-11T11:29:43.714Z,1010.62
2019-01-11T11:30:43.690Z,1010.61
2019-01-11T11:31:43.682Z,1010.53
2019-01-11T11:32:43.674Z,1010.51
2019-01-11T11:33:43.647Z,1010.50
2019-01-11T11:34:43.634Z,1010.53
2019-01-11T11:35:43.652Z,1010.50
2019-01-11T11:36:43.634Z,1010.49
2019-01-11T11:37:43.611Z,1010.49
2019-01-11T11:38:43.595Z,1010.42
2019-01-11T11:39:43.580Z,1010.46
2019-01-11T11:40:43.584Z,1010.36
2019-01-11T11:41:43.563Z,1010.35
2019-01-11T11:42:43.547Z,1010.33
2019-01-11T11:43:43.554Z,1010.33
2019-01-11T11:44:43.529Z,1010.35
2019-01-11T11:45:43.525Z,1010.27
2019-01-11T11:46:43.508Z,1010.28
2019-01-11T11:47:43.487Z,1010.27
2019-01-11T11:48:43.481Z,1010.26
2019-01-11T11:49:43.525Z,1010.27
2019-01-11T11:50:43.470Z,1010.22
2019-01-11T11:51:43.463Z,1010.19
2019-01-11T11:52:43.436Z,1010.12
2019-01-11T11:53:43.428Z,1010.11
2019-01-11T11:54:43.417Z,1010.09
2019-01-11T11:55:43.419Z,1010.00
2019-01-11T11:56:43.402Z,1010.04
2019-01-11T11:57:43.395Z,1009.97
2019-01-11T11:58:43.392Z,1009.96
2019-01-11T11:59:43.365Z,1009.89
2019-01-11T12:00:43.570Z,1009.92
2019-01-11T12:01:46.627Z,1009.88
2019-01-11T12:02:43.329Z,1009.87
2019-01-11T12:03:43.321Z,1009.87
2019-01-11T12:04:43.308Z,1009.85
2019-01-11T12:05:43.315Z,1009.86